Oak Hill, WV

4:13 PM EDT on August 24, 2016 (GMT -0400)
F.I.T. - Oyler Ave. | | Change Station

Elev 1988 ft 37.99 °N, 81.15 °W | Updated 9 seconds ago

Mostly Cloudy
Mostly Cloudy
82.1 °F
Feels Like 85 °F
N
0.0
Wind Variable Wind from East
Gusts 8.0 mph

Today
High -- | Low -- °F
--% Chance of Precip.
Yesterday
High -- | Low -- °F
Precip. -- in
Pressure 30.20 in
Visibility 10.0 miles
Clouds Scattered Clouds 3400 ft
Mostly Cloudy 4500 ft
Heat Index 85 °F
Dew Point 68 °F
Humidity 63%
Rainfall 0.00 in
Snow Depth Not available.
6:47 AM 8:04 PM
Waning Gibbous, 54% visible
METAR KBKW 241951Z AUTO 25004KT 10SM SCT034 BKN045 26/18 A3029 RMK AO2 CIG 036 RWY19 SLP226 T02560178
Pressure 30.20 in
Visibility 10.0 miles
Clouds Scattered Clouds 3400 ft
Mostly Cloudy 4500 ft
Heat Index 85 °F
Dew Point 68 °F
Humidity 63%
Rainfall 0.00 in
Snow Depth Not available.
6:47 AM 8:04 PM
Waning Gibbous, 54% visible
METAR KBKW 241951Z AUTO 25004KT 10SM SCT034 BKN045 26/18 A3029 RMK AO2 CIG 036 RWY19 SLP226 T02560178

10-Day Weather Forecast

Almanac

Astronomy

Aug. 24, 2016 Rise Set
Actual Time
Civil Twilight
Nautical Twilight
Astronomical Twilight
Moon
Length of Visible Light
Length of Day
Tomorrow will be .
, % of the Moon is Illuminated

Today's Extremes

State Highs State Lows

Community

WunderPhotos

Upload Photos

1,934,699 photos uploaded!

WunderBlog® & News

Nearby

Air Quality

  Air Quality AQ Index Pollutant
Not available.

Snow Depth

Station Depth Elevation

Earthquake Activity

City Distance Mag. Time & Date
Minimum magnitude displayed is 2.5.

Coastal Water Temperatures

Place Temperature

Stations

Nearby Weather Stations

Station Location Temp. Windchill Dew Point Humidity Wind Precip. Elev Updated Type
                   

Watches & Warnings

There are currently no watches in effect.